Aeroporto :
LOGIN :

Iscrizione | Disclaimer

   EN    FR    IT 

 










Sommario :    VFR   VFR Marginale   IFR   IFR Intensivo   IFR Molto Intensivo
Visibilità : 
Base nubi : 
>= 8 km
>= 3000ft
5 / 8 km
1000 / 3000 ft
1500m / 5 km
500 / 1000 ft
800 / 1500m
200 / 500 ft
< 800m
< 200 ft
Simboli :   Temporali  Nebbia  Neve Forte  Precipitazioni Forti  Vento > 20 kt
SIGMETs :   Varie  Temporali  Ghiacco  Turbolenza  Onda orograficha  Ceneri Vulcaniche






- Altitudine del aeroporto : 512 ft
- Codice IATA : URO


LFOP - Rouen Vallée de Seine

ULTIMO METAR :
  • 221330Z AUTO 31011KT 9999 BKN019 BKN029 OVC048 11/07 Q1023 NOSIG

METARs OBSOLETI :
  • 221300Z AUTO 28007KT 250V310 9999 FEW019 SCT035 OVC046 12/08 Q1023 NOSIG
  • 221230Z AUTO 28008KT 9999 -RA BKN021 BKN030 BKN037 11/07 Q1023 NOSIG
  • 221200Z AUTO 26009KT 230V300 9999 SCT034 OVC048 11/08 Q1023 NOSIG
  • 221130Z AUTO 26009KT 9999 OVC033 11/07 Q1023 NOSIG
  • 221100Z AUTO 24009KT 9999 FEW036 OVC052 11/08 Q1023 NOSIG

TAF TAF LFOP
Valido dal 22 a 12 ore il 23 a 12 ore UTC


221100Z 2212/2312 28011KT 9999 BKN030
BECMG 2215/2218 VRB02KT
PROB30
TEMPO 2217/2304 4000 SHRA BKN013
PROB30
TEMPO 2304/2308 2000 BCFG
ATIS : +33 2 35 80 80 34
Met : +33 2 32 86 52 80



MetMap, La meteo Aeronautica in un colpo d'occhio ! - Copyright ORBIFLY Dicembre 2007 - Disclaimer

ORBIFLY MET'MAP TEAM :

Programmazione e sviluppo : Alexandra Zaïnal
Concezione : Baudouin d'Aumeries
Aiuto per la programmazione : Marc-Olivier Méhu
Supporto tecnico e logistico : Manuel Goepfert
Aiuto per la traduzione : Arnaldo La Scala

Contatto : metmap@orbifly.com




FONTI E CREDITI :

   NOAA